Latest Weather Observations for Mount Gellibrand

IDV60801

Issued at 4:04 pm EST Monday 25 September 2017 (issued every 30 minutes, with the page automatically refreshed every 10 minutes)

About weather observations | Map of weather stations | Latest weather observations for VIC | Other Formats
Station Details ID: 090035 Name: MOUNT GELLIBRAND Lat: -38.23 Lon: 143.79 Height: 261.0 m
Data from the previous 72 hours. | See also: Recent months at Mount Gellibrand
Date/Time
EST
Temp
°C
App
Temp
°C
Dew
Point
°C
Rel
Hum
%
Delta-T
°C
Wind Press
QNH
hPa
Press
MSL
hPa
Rain since
9am
mm
Dir  Spd
km/h
Gust
km/h
Spd
kts
Gust
kts
25/04:00pm 10.4 3.2 6.0 74 2.1 WSW 33 46 18 25 1010.9 1011.1 1.0
25/03:30pm 10.8 3.9 7.1 78 1.8 WSW 33 41 18 22 1010.8 1011.0 1.0
25/03:00pm 9.5 1.8 7.1 85 1.1 WSW 37 43 20 23 1010.5 1010.6 1.0
25/02:30pm 10.5 2.8 7.0 79 1.7 WSW 37 46 20 25 1009.9 1010.0 1.0
25/02:05pm 9.6 0.0 8.0 90 0.8 WSW 48 69 26 37 1009.5 1009.6 1.0
25/02:00pm 8.9 -1.2 7.5 91 0.7 WSW 50 69 27 37 1009.5 1009.6 1.0
25/01:46pm 9.9 1.3 6.4 79 1.7 WSW 41 63 22 34 1009.4 1009.5 1.0
25/01:30pm 11.2 2.1 6.9 75 2.1 WSW 44 57 24 31 1009.5 1009.6 1.0
25/01:10pm 10.5 3.3 7.7 83 1.4 WSW 35 56 19 30 1009.3 1009.4 1.0
25/01:00pm 10.1 2.5 7.5 84 1.3 WSW 37 50 20 27 1009.5 1009.6 1.0
25/12:30pm 9.6 3.3 9.0 96 0.3 WSW 32 43 17 23 1009.4 1009.5 1.0
25/12:00pm 10.4 4.0 9.2 92 0.6 WSW 33 43 18 23 1009.2 1009.3 0.8
25/11:30am 10.2 3.9 9.6 96 0.3 W 33 50 18 27 1008.9 1009.0 0.8
25/11:25am 10.2 4.5 9.9 98 0.2 W 30 50 16 27 1008.7 1008.8 0.8
25/11:00am 8.1 1.4 8.1 100 0.0 WSW 33 43 18 23 1008.9 1009.0 0.8
25/10:39am 10.7 5.0 9.8 94 0.5 W 30 61 16 33 1008.6 1008.7 0.8
25/10:30am 10.2 5.3 9.9 98 0.2 W 26 37 14 20 1008.5 1008.6 0.8
25/10:00am 8.9 3.7 8.9 100 0.0 W 26 35 14 19 1008.4 1008.5 0.8
25/09:30am 8.4 3.0 8.0 97 0.2 WNW 26 32 14 17 1008.3 1008.4 0.6
25/09:00am 9.3 4.8 8.4 94 0.4 W 22 32 12 17 1007.9 1008.0 3.0
25/08:30am 9.4 5.1 9.4 100 0.0 WSW 22 32 12 17 1007.4 1007.6 3.0
25/08:00am 9.1 4.7 9.1 100 0.0 W 22 32 12 17 1006.9 1007.0 3.0
25/07:30am 8.4 4.4 8.4 100 0.0 W 19 22 10 12 1006.5 1006.6 3.0
25/07:00am 8.1 4.4 8.1 100 0.0 W 17 22 9 12 1006.2 1006.3 3.0
25/06:30am 7.9 3.8 7.9 100 0.0 W 19 26 10 14 1005.7 1005.8 3.0
25/06:00am 7.8 3.7 7.8 100 0.0 W 19 24 10 13 1005.2 1005.3 3.0
25/05:30am 8.3 3.7 8.3 100 0.0 WSW 22 28 12 15 1004.8 1004.9 3.0
25/05:00am 8.3 3.7 8.3 100 0.0 WSW 22 32 12 17 1004.4 1004.5 3.0
25/04:30am 8.0 3.7 8.0 100 0.0 W 20 30 11 16 1004.1 1004.1 3.0
25/04:00am 8.5 4.6 8.5 100 0.0 W 19 26 10 14 1003.9 1003.9 3.0
25/03:30am 8.7 4.2 8.7 100 0.0 W 22 32 12 17 1003.4 1003.5 3.0
25/03:00am 8.9 3.0 8.9 100 0.0 W 30 39 16 21 1003.2 1003.3 3.0
25/02:30am 9.1 3.6 9.1 100 0.0 W 28 37 15 20 1003.1 1003.2 3.0
25/02:00am 9.3 1.4 9.3 100 0.0 WNW 41 52 22 28 1002.8 1002.9 1.4
25/01:30am 9.5 1.2 9.5 100 0.0 WNW 43 52 23 28 1002.4 1002.5 1.4
25/01:00am 9.5 1.2 9.5 100 0.0 WNW 43 52 23 28 1002.2 1002.3 1.4
25/12:30am 9.6 1.2 9.6 100 0.0 WNW 44 54 24 29 1001.9 1002.0 1.4
25/12:00am 9.8 0.3 9.7 99 0.1 WNW 50 61 27 33 1001.5 1001.6 1.4
 
Date/Time
EST
Temp
°C
App
Temp
°C
Dew
Point
°C
Rel
Hum
%
Delta-T
°C
Wind Press
QNH
hPa
Press
MSL
hPa
Rain since
9am
mm
Dir  Spd
km/h
Gust
km/h
Spd
kts
Gust
kts
24/11:30pm 9.8 -0.2 9.5 98 0.2 WNW 52 63 28 34 1001.3 1001.4 1.4
24/11:00pm 10.0 0.9 9.7 98 0.2 WNW 48 59 26 32 1001.2 1001.3 1.4
24/10:30pm 10.1 -0.6 9.6 97 0.3 WNW 56 69 30 37 1000.7 1000.7 1.4
24/10:01pm 10.1 0.5 9.6 97 0.3 WNW 50 70 27 38 1000.2 1000.2 1.4
24/10:00pm 10.1 0.9 9.6 97 0.3 WNW 48 61 26 33 1000.4 1000.4 1.4
24/09:35pm 10.3 -0.1 9.4 94 0.5 WNW 54 74 29 40 1000.0 1000.0 1.4
24/09:30pm 10.5 0.5 9.4 93 0.6 NW 52 67 28 36 1000.0 1000.0 1.4
24/09:00pm 10.6 0.7 9.7 94 0.5 NW 52 61 28 33 999.4 999.5 1.4
24/08:30pm 10.9 -1.6 9.3 90 0.8 NW 65 85 35 46 998.3 998.4 1.4
24/08:27pm 10.9 -1.2 9.5 91 0.7 NW 63 85 34 46 998.4 998.5 1.4
24/08:00pm 10.6 -1.1 9.5 93 0.6 NW 61 78 33 42 998.1 998.2 1.4
24/07:30pm 10.7 -0.5 9.9 95 0.4 NW 59 74 32 40 997.2 997.2 1.4
24/07:00pm 10.7 -0.6 9.5 92 0.6 NW 59 72 32 39 997.0 997.0 1.4
24/06:30pm 10.9 0.2 9.5 91 0.7 NW 56 69 30 37 996.5 996.5 1.4
24/06:00pm 11.2 -0.1 9.5 89 0.9 NW 59 72 32 39 995.7 995.8 1.4
24/05:48pm 11.3 1.4 9.9 91 0.7 NW 52 70 28 38 996.1 996.1 1.4
24/05:30pm 11.3 1.1 10.0 92 0.7 NW 54 67 29 36 996.1 996.1 1.4
24/05:00pm 11.7 0.2 10.1 90 0.8 NW 61 72 33 39 995.6 995.7 1.4
24/04:30pm 11.3 0.7 10.5 95 0.4 NW 57 69 31 37 995.6 995.7 1.4
24/04:00pm 11.5 0.7 9.1 85 1.2 NW 56 80 30 43 995.0 995.1 1.2
24/03:30pm 13.2 0.4 8.1 71 2.6 NW 65 87 35 47 994.4 994.4 0.8
24/03:26pm 13.3 1.8 8.8 74 2.3 NW 59 87 32 47 994.6 994.7 0.8
24/03:00pm 12.6 1.9 9.6 82 1.6 NW 56 69 30 37 995.3 995.4 0.8
24/02:30pm 12.2 2.2 10.6 90 0.8 NNW 54 72 29 39 995.4 995.5 0.8
24/02:00pm 11.0 3.3 10.1 94 0.5 NW 41 52 22 28 996.4 996.4 0.4
24/01:30pm 12.8 1.6 8.3 74 2.3 NW 57 69 31 37 995.9 995.9 0.0
24/01:00pm 13.3 1.7 8.2 71 2.6 NW 59 72 32 39 996.0 996.0 0.0
24/12:30pm 12.5 1.2 8.0 74 2.2 NNW 57 74 31 40 996.2 996.2 0.0
24/12:28pm 12.3 1.7 8.4 77 2.0 NW 54 72 29 39 996.5 996.5 0.0
24/12:00pm 14.0 3.2 7.5 65 3.3 NW 54 69 29 37 996.4 996.4 0.0
24/11:30am 13.5 3.9 8.1 70 2.7 NW 48 65 26 35 996.9 996.9 0.0
24/11:00am 13.5 2.4 8.1 70 2.7 NW 56 70 30 38 996.9 996.9 0.0
24/10:34am 12.2 2.4 8.5 78 1.9 NW 50 72 27 39 997.1 997.1 0.0
24/10:30am 11.7 1.3 7.6 76 2.0 NW 52 65 28 35 997.4 997.4 0.0
24/10:00am 12.1 1.5 8.4 78 1.9 NW 54 70 29 38 997.2 997.2 0.0
24/09:30am 11.8 2.8 8.8 82 1.5 NW 46 61 25 33 997.4 997.4 0.0
24/09:00am 10.8 1.3 8.4 85 1.2 NW 48 63 26 34 997.3 997.3 4.4
24/08:30am 10.1 0.5 8.0 87 1.0 NW 48 56 26 30 997.2 997.2 4.4
24/08:00am 9.6 1.7 9.3 98 0.2 NW 41 50 22 27 997.0 997.0 4.4
24/07:30am 8.6 0.5 8.6 100 0.0 NW 41 50 22 27 996.7 996.7 4.4
24/07:00am 7.9 0.0 7.9 100 0.0 NW 39 46 21 25 996.7 996.7 4.4
24/06:30am 8.0 -0.6 8.0 100 0.0 WNW 43 54 23 29 996.8 996.8 3.4
24/06:00am 8.0 0.1 8.0 100 0.0 WNW 39 50 21 27 996.6 996.6 1.4
24/05:30am 8.5 1.5 8.5 100 0.0 NW 35 43 19 23 996.3 996.3 0.6
24/05:00am 9.0 0.5 8.7 98 0.1 NW 43 52 23 28 996.3 996.3 0.6
24/04:38am 9.3 2.8 9.0 98 0.1 NW 33 52 18 28 996.2 996.2 0.4
24/04:30am 8.9 2.5 8.5 97 0.2 NW 32 37 17 20 996.3 996.3 0.4
24/04:00am 9.6 1.8 8.2 91 0.7 NW 39 48 21 26 996.3 996.3 0.4
24/03:30am 9.5 2.1 8.3 92 0.6 NW 37 46 20 25 996.8 996.8 0.4
24/03:00am 9.6 2.2 8.5 93 0.5 NW 37 44 20 24 996.8 996.8 0.4
24/02:30am 10.0 2.4 9.1 94 0.5 WNW 39 48 21 26 997.4 997.4 0.4
24/02:00am 10.0 2.1 9.2 95 0.4 WNW 41 54 22 29 997.7 997.7 0.4
24/01:30am 10.4 2.9 9.3 93 0.6 NW 39 57 21 31 997.7 997.7 0.4
24/01:00am 10.6 3.4 9.0 90 0.8 NW 37 48 20 26 998.0 998.1 0.4
24/12:30am 10.9 3.7 9.2 89 0.9 NW 37 46 20 25 997.9 998.0 0.4
24/12:00am 11.0 2.1 9.3 89 0.9 NW 46 56 25 30 997.5 997.5 0.4
 
Date/Time
EST
Temp
°C
App
Temp
°C
Dew
Point
°C
Rel
Hum
%
Delta-T
°C
Wind Press
QNH
hPa
Press
MSL
hPa
Rain since
9am
mm
Dir  Spd
km/h
Gust
km/h
Spd
kts
Gust
kts
23/11:30pm 11.2 4.1 9.6 90 0.8 NW 37 46 20 25 998.1 998.2 0.4
23/11:00pm 11.4 3.6 9.7 89 0.9 WNW 41 50 22 27 998.2 998.3 0.4
23/10:30pm 11.7 4.8 10.3 91 0.7 NW 37 52 20 28 998.3 998.4 0.4
23/10:00pm 11.9 3.8 10.0 88 1.0 WNW 43 52 23 28 998.3 998.4 0.4
23/09:30pm 12.2 4.0 10.4 89 0.9 WNW 44 56 24 30 998.0 998.1 0.4
23/09:00pm 12.5 4.0 10.6 88 1.0 WNW 46 54 25 29 997.8 997.9 0.4
23/08:30pm 12.6 3.5 11.2 91 0.7 WNW 50 61 27 33 997.2 997.2 0.4
23/08:00pm 12.6 6.2 12.1 97 0.3 NW 37 46 20 25 996.9 996.9 0.4
23/07:30pm 12.5 5.9 12.5 100 0.0 WNW 39 50 21 27 996.8 996.8 0.4
23/07:00pm 12.7 6.1 12.7 100 0.0 WNW 39 48 21 26 996.4 996.4 0.2
23/06:30pm 12.4 5.7 12.4 100 0.0 W 39 50 21 27 996.0 996.0 0.2
23/06:00pm 12.5 6.8 11.9 96 0.3 W 33 43 18 23 996.0 996.0 0.0
23/05:30pm 12.9 6.7 11.5 91 0.8 WSW 35 43 19 23 995.0 995.1 0.0
23/05:08pm 12.9 4.9 10.6 86 1.2 WSW 43 63 23 34 994.9 995.0 0.0
23/05:00pm 13.6 5.0 10.2 80 1.8 WSW 46 57 25 31 994.3 994.3 0.0
23/04:30pm 13.9 4.9 10.1 78 2.0 SW 48 65 26 35 993.5 993.5 0.0
23/04:00pm 14.8 4.0 10.0 73 2.6 SW 57 76 31 41 992.5 992.5 0.0
23/03:51pm 16.0 5.7 11.2 73 2.6 SW 56 76 30 41 992.2 992.2 0.0
23/03:30pm 17.4 7.7 11.9 70 3.1 WSW 54 65 29 35 991.9 991.9 0.0
23/03:22pm 18.1 11.8 12.3 69 3.3 WSW 37 63 20 34 991.3 991.4 0.0
23/03:20pm 19.2 14.3 13.6 70 3.2 WSW 32 61 17 33 991.7 991.8 0.0
23/03:00pm 20.2 17.3 13.9 67 3.7 SW 22 28 12 15 991.6 991.7 0.0
23/02:30pm 19.2 18.4 12.9 67 3.6 SSE 9 13 5 7 991.3 991.4 0.0
23/02:00pm 18.6 16.7 13.0 70 3.2 E 15 22 8 12 991.2 991.2 0.0
23/01:30pm 18.7 15.2 13.3 71 3.1 E 24 30 13 16 990.9 990.9 0.0
23/01:00pm 18.6 13.6 12.1 66 3.7 ENE 30 35 16 19 991.1 991.1 0.0
23/12:30pm 19.2 14.3 12.5 65 3.8 ENE 30 37 16 20 991.2 991.2 0.0
23/12:00pm 19.1 14.4 12.1 64 4.0 E 28 33 15 18 992.3 992.3 0.0
23/11:30am 19.1 14.7 12.8 67 3.6 E 28 33 15 18 992.7 992.7 0.0
23/11:00am 19.1 15.9 13.1 68 3.5 E 22 28 12 15 994.2 994.2 0.0
23/10:30am 18.4 17.0 13.3 72 2.9 S 13 17 7 9 995.5 995.6 0.0
23/10:00am 17.7 14.1 11.9 69 3.2 SW 22 39 12 21 996.8 996.8 0.0
23/09:30am 17.7 16.5 11.7 68 3.3 SE 9 13 5 7 996.4 996.4 0.0
23/09:00am 17.1 15.4 11.2 68 3.3 S 11 17 6 9 996.8 996.8 0.0
23/08:30am 16.5 13.4 10.4 67 3.3 SW 17 22 9 12 997.5 997.5 0.0
23/08:00am 15.7 12.0 9.6 67 3.2 W 19 22 10 12 998.3 998.4 0.0
23/07:30am 15.3 9.8 9.0 66 3.3 W 28 37 15 20 998.5 998.6 0.0
23/07:00am 15.0 8.6 8.7 66 3.3 WSW 32 43 17 23 999.1 999.2 0.0
23/06:30am 15.3 9.3 7.1 58 4.1 W 28 30 15 16 998.4 998.5 0.0
23/06:00am 15.1 10.8 6.9 58 4.1 W 19 22 10 12 998.1 998.2 0.0
23/05:30am 17.5 12.3 5.4 45 5.9 WNW 22 32 12 17 998.1 998.2 0.0
23/05:00am 16.7 11.8 5.3 47 5.6 NNW 20 24 11 13 997.9 998.0 0.0
23/04:30am 17.6 11.9 4.9 43 6.2 N 24 28 13 15 997.6 997.6 0.0
23/04:00am 18.2 13.4 5.4 43 6.3 N 20 28 11 15 998.2 998.3 0.0
23/03:30am 18.6 15.6 5.8 43 6.4 N 11 22 6 12 999.4 999.5 0.0
23/03:00am 16.5 15.1 7.2 54 4.7 WSW 4 7 2 4 1000.3 1000.3 0.0
23/02:30am 17.9 11.1 6.7 48 5.6 NNW 32 48 17 26 1000.5 1000.5 0.0
23/02:11am 19.0 13.2 6.2 43 6.4 NW 26 54 14 29 1000.6 1000.6 0.0
23/02:06am 19.0 14.6 7.4 47 6.0 WSW 20 44 11 24 1001.5 1001.6 0.0
23/02:00am 13.9 9.5 9.1 73 2.5 WSW 22 32 12 17 1002.2 1002.3 0.0
23/01:30am 17.9 11.6 7.6 51 5.3 N 30 37 16 20 1001.2 1001.3 0.0
23/01:00am 17.8 12.0 8.1 53 5.0 N 28 35 15 19 1001.8 1001.9 0.0
23/12:30am 17.4 10.9 9.1 58 4.4 N 33 39 18 21 1001.7 1001.8 0.0
23/12:00am 16.8 10.6 9.5 62 3.9 N 32 35 17 19 1001.9 1002.0 0.0
 
Date/Time
EST
Temp
°C
App
Temp
°C
Dew
Point
°C
Rel
Hum
%
Delta-T
°C
Wind Press
QNH
hPa
Press
MSL
hPa
Rain since
9am
mm
Dir  Spd
km/h
Gust
km/h
Spd
kts
Gust
kts
22/11:30pm 17.1 10.9 9.3 60 4.1 N 32 35 17 19 1002.6 1002.7 0.0
22/11:00pm 17.0 10.6 9.2 60 4.1 N 33 37 18 20 1002.9 1003.0 0.0
22/10:30pm 16.1 9.7 9.5 65 3.5 N 33 37 18 20 1003.2 1003.3 0.0
22/10:00pm 16.0 9.8 9.9 67 3.2 N 33 37 18 20 1003.4 1003.5 0.0
22/09:30pm 16.1 10.9 10.2 68 3.1 N 28 32 15 17 1003.7 1003.8 0.0
22/09:00pm 16.4 11.3 10.7 69 3.1 NNE 28 33 15 18 1004.0 1004.0 0.0
22/08:30pm 17.1 12.4 10.7 66 3.5 N 26 32 14 17 1004.5 1004.6 0.0
22/08:00pm 17.4 14.0 11.2 67 3.4 N 20 24 11 13 1005.0 1005.1 0.0
22/07:30pm 17.4 14.0 11.4 68 3.3 NNE 20 28 11 15 1005.1 1005.2 0.0
22/07:00pm 17.4 14.3 11.7 69 3.2 NNE 19 24 10 13 1005.0 1005.1 0.0
22/06:30pm 18.2 15.8 11.5 65 3.7 NNE 15 17 8 9 1004.8 1004.9 0.0
22/06:00pm 18.9 16.1 11.2 61 4.3 NNE 17 19 9 10 1004.6 1004.7 0.0
22/05:30pm 19.4 16.6 11.4 60 4.4 N 17 20 9 11 1004.8 1004.9 0.0
22/05:00pm 20.5 17.7 12.7 61 4.5 N 19 22 10 12 1005.0 1005.1 0.0
22/04:30pm 20.1 19.6 13.8 67 3.7 NNE 9 15 5 8 1005.1 1005.2 0.0

Other Formats:

Comma delimited format used in spreadsheet applications
http://www.bom.gov.au/fwo/IDV60801/IDV60801.95845.axf

JavaScript Object Notation format (JSON) in row-major order
http://www.bom.gov.au/fwo/IDV60801/IDV60801.95845.json